Time;durP1;ratioP1;P1;durP2;ratioP2;P2;SDS_P1;SDS_P2;PMS_P1;PMS_P2;Temp;Humidity;BMP_temperature;BMP_pressure;BME280_temperature;BME280_humidity;BME280_pressure;Samples;Min_cycle;Max_cycle;Signal;HPM_P1;HPM_P2
2021/12/25 00:02:05;;;;;;;4.40;3.97;;;10.60;46.60;;;;;;10354364;28;20337;-69
2021/12/25 00:07:10;;;;;;;4.60;4.20;;;10.60;46.70;;;;;;10350290;28;20305;-69
2021/12/25 00:12:13;;;;;;;4.63;4.20;;;10.60;47.20;;;;;;10357293;28;20226;-69
2021/12/25 00:17:17;;;;;;;4.63;4.23;;;10.60;46.90;;;;;;10349968;28;20606;-68
2021/12/25 00:22:22;;;;;;;5.20;4.70;;;10.60;47.00;;;;;;10347132;28;20223;-68
2021/12/25 00:32:54;;;;;;;5.13;4.67;;;10.60;47.00;;;;;;10350476;28;20245;-68
2021/12/25 00:37:59;;;;;;;4.80;4.30;;;10.50;47.10;;;;;;10348458;28;20237;-68
2021/12/25 00:43:02;;;;;;;5.43;4.93;;;10.60;47.50;;;;;;10348981;28;20215;-69
2021/12/25 00:48:06;;;;;;;5.73;5.17;;;10.60;47.30;;;;;;10348205;28;20310;-68
2021/12/25 00:53:10;;;;;;;5.87;5.27;;;10.60;47.20;;;;;;10354004;28;20214;-68
2021/12/25 00:58:14;;;;;;;6.70;5.73;;;10.60;47.30;;;;;;10353323;28;20257;-68
2021/12/25 01:03:17;;;;;;;6.03;5.47;;;10.60;47.10;;;;;;10356341;28;20253;-68
2021/12/25 01:08:22;;;;;;;6.63;6.00;;;10.60;47.00;;;;;;10352509;28;20230;-68
2021/12/25 01:13:28;;;;;;;5.40;4.90;;;10.60;47.20;;;;;;10354916;28;20265;-69
2021/12/25 01:29:39;;;;;;;5.33;4.83;;;10.70;47.00;;;;;;10354222;28;20230;-68
2021/12/25 01:40:20;;;;;;;5.90;4.70;;;10.80;46.80;;;;;;10353984;28;20218;-69
2021/12/25 01:50:53;;;;;;;5.70;5.10;;;10.80;47.30;;;;;;10352682;28;20222;-68
2021/12/25 01:55:59;;;;;;;4.87;4.47;;;10.80;46.80;;;;;;10360373;28;20226;-69
2021/12/25 02:01:05;;;;;;;5.60;5.10;;;10.70;47.10;;;;;;10355359;28;20222;-69
2021/12/25 02:06:11;;;;;;;4.80;4.40;;;10.80;47.10;;;;;;10351741;28;20233;-69
2021/12/25 02:11:16;;;;;;;5.57;5.07;;;10.70;46.90;;;;;;10353581;28;20230;-68
2021/12/25 02:16:23;;;;;;;5.70;5.20;;;10.70;47.00;;;;;;10354280;28;20231;-75
2021/12/25 02:21:34;;;;;;;5.27;4.77;;;10.60;47.00;;;;;;10357116;28;20232;-76
2021/12/25 02:26:38;;;;;;;5.00;4.50;;;10.60;47.30;;;;;;10351939;28;20230;-76
2021/12/25 02:31:42;;;;;;;4.93;4.50;;;10.60;47.30;;;;;;10349816;28;20223;-76
2021/12/25 02:36:46;;;;;;;5.07;4.60;;;10.60;47.30;;;;;;10349812;28;20226;-76
2021/12/25 02:41:50;;;;;;;4.93;4.43;;;10.60;47.60;;;;;;10350060;28;20234;-76
2021/12/25 02:46:55;;;;;;;4.70;4.30;;;10.60;47.30;;;;;;10351527;28;20230;-76
2021/12/25 02:52:00;;;;;;;4.73;4.27;;;10.70;47.30;;;;;;10351522;28;20226;-76
2021/12/25 02:57:04;;;;;;;4.77;4.37;;;10.70;47.40;;;;;;10351127;28;20687;-75
2021/12/25 03:02:09;;;;;;;5.30;4.83;;;10.70;47.10;;;;;;10347922;28;20218;-75
2021/12/25 03:07:14;;;;;;;5.03;4.57;;;10.80;47.40;;;;;;10347671;28;20229;-75
2021/12/25 03:12:26;;;;;;;4.63;4.23;;;10.80;47.30;;;;;;10345030;28;20221;-76
2021/12/25 03:17:29;;;;;;;4.67;4.23;;;10.80;47.10;;;;;;10351093;28;20227;-76
2021/12/25 03:22:34;;;;;;;4.70;4.30;;;10.80;47.20;;;;;;10356824;28;20230;-76
2021/12/25 03:27:39;;;;;;;4.80;4.30;;;10.80;47.20;;;;;;10350325;28;20226;-76
2021/12/25 03:32:42;;;;;;;5.07;4.63;;;10.90;47.20;;;;;;10352038;28;20232;-76
2021/12/25 03:37:47;;;;;;;5.20;4.70;;;10.90;46.90;;;;;;10351108;28;20741;-76
2021/12/25 03:42:50;;;;;;;5.03;4.53;;;10.90;47.10;;;;;;10356214;28;20223;-76
2021/12/25 03:48:03;;;;;;;5.00;4.60;;;10.90;46.80;;;;;;10345968;28;20236;-76
2021/12/25 03:53:21;;;;;;;5.57;5.07;;;10.90;46.90;;;;;;10350927;28;20218;-75
2021/12/25 03:58:29;;;;;;;5.43;4.93;;;10.80;47.20;;;;;;10351851;28;20228;-76
2021/12/25 04:03:44;;;;;;;5.27;4.77;;;10.80;47.00;;;;;;10350512;28;20226;-76
2021/12/25 04:08:51;;;;;;;4.80;4.40;;;10.80;47.20;;;;;;10351718;28;20227;-76
2021/12/25 04:13:55;;;;;;;6.03;5.53;;;10.70;47.30;;;;;;10349228;28;20230;-76
2021/12/25 04:18:58;;;;;;;6.73;6.13;;;10.70;47.20;;;;;;10350898;28;20229;-76
2021/12/25 04:24:03;;;;;;;5.47;4.93;;;10.70;47.20;;;;;;10348739;28;20445;-76
2021/12/25 04:29:20;;;;;;;6.07;5.47;;;10.70;47.40;;;;;;10357456;28;20233;-75
2021/12/25 05:06:32;;;;;;;5.47;4.97;;;10.80;47.50;;;;;;10358990;28;20225;-75
2021/12/25 05:11:36;;;;;;;5.10;4.60;;;10.80;47.50;;;;;;10354421;28;20226;-77
2021/12/25 05:16:39;;;;;;;5.00;4.60;;;10.80;47.60;;;;;;10360705;28;20625;-76
2021/12/25 05:21:42;;;;;;;4.93;4.53;;;10.80;47.50;;;;;;10352821;28;20223;-75
2021/12/25 05:26:47;;;;;;;5.93;5.33;;;10.80;47.40;;;;;;10357001;28;20596;-75
2021/12/25 05:31:50;;;;;;;5.03;4.53;;;10.70;47.50;;;;;;10356837;28;20246;-77
2021/12/25 05:36:54;;;;;;;5.70;5.20;;;10.70;47.30;;;;;;10354364;28;20487;-76
2021/12/25 05:41:59;;;;;;;5.10;4.70;;;10.70;47.30;;;;;;10350133;28;20734;-76
2021/12/25 05:47:02;;;;;;;4.67;4.27;;;10.80;47.70;;;;;;10351452;28;20246;-74
2021/12/25 05:52:06;;;;;;;13.43;10.07;;;10.80;47.50;;;;;;10350431;28;20222;-75
2021/12/25 05:57:12;;;;;;;6.90;6.00;;;10.80;47.40;;;;;;10349353;28;20241;-75
2021/12/25 06:02:15;;;;;;;5.30;4.80;;;10.80;47.40;;;;;;10355643;28;20244;-75
2021/12/25 06:07:18;;;;;;;7.53;6.83;;;10.80;47.10;;;;;;10347226;28;20550;-75
2021/12/25 06:12:23;;;;;;;5.20;4.73;;;10.80;47.00;;;;;;10345755;28;20241;-75
2021/12/25 06:17:27;;;;;;;5.03;4.53;;;10.80;47.20;;;;;;10351697;28;20683;-76
2021/12/25 06:22:30;;;;;;;4.43;4.03;;;10.70;46.80;;;;;;10352810;28;20314;-76
2021/12/25 06:27:35;;;;;;;5.30;4.57;;;10.70;47.00;;;;;;10352921;28;20227;-75
2021/12/25 06:32:38;;;;;;;4.87;4.37;;;10.70;47.00;;;;;;10353870;28;20226;-75
2021/12/25 06:37:44;;;;;;;5.63;5.17;;;10.60;46.80;;;;;;10350541;28;20227;-76
2021/12/25 06:42:49;;;;;;;5.33;4.90;;;10.70;47.10;;;;;;10355802;28;20232;-75
2021/12/25 06:47:52;;;;;;;5.27;4.77;;;10.60;47.30;;;;;;10350754;28;20223;-75
2021/12/25 06:52:56;;;;;;;5.07;4.60;;;10.60;47.30;;;;;;10354093;28;20235;-75
2021/12/25 06:58:00;;;;;;;6.00;5.50;;;10.60;47.50;;;;;;10356588;28;20231;-75
2021/12/25 07:03:03;;;;;;;5.70;5.20;;;10.60;47.90;;;;;;10354372;28;20237;-76
2021/12/25 07:08:07;;;;;;;6.20;5.53;;;10.50;47.80;;;;;;10353514;28;20234;-76
2021/12/25 07:13:16;;;;;;;7.00;6.10;;;10.50;47.90;;;;;;10353172;28;20229;-77
2021/12/25 07:18:19;;;;;;;6.97;6.30;;;10.50;48.30;;;;;;10352705;28;20722;-76
2021/12/25 07:23:23;;;;;;;6.93;6.23;;;10.50;48.00;;;;;;10349120;28;20599;-77
2021/12/25 07:28:28;;;;;;;6.33;5.73;;;10.50;47.90;;;;;;10352102;28;20226;-76
2021/12/25 07:33:32;;;;;;;6.87;6.17;;;10.60;48.10;;;;;;10351924;28;20231;-76
2021/12/25 07:38:35;;;;;;;6.87;6.23;;;10.50;48.00;;;;;;10349141;28;20348;-76
2021/12/25 07:43:40;;;;;;;8.87;7.57;;;10.50;47.90;;;;;;10345916;28;20265;-76
2021/12/25 07:48:44;;;;;;;7.47;6.67;;;10.50;48.20;;;;;;10349924;28;20230;-76
2021/12/25 07:53:47;;;;;;;6.97;6.30;;;10.50;47.90;;;;;;10352087;28;20222;-77
2021/12/25 07:58:52;;;;;;;6.43;5.83;;;10.50;48.00;;;;;;10353263;28;20222;-77
2021/12/25 08:03:55;;;;;;;8.73;7.83;;;10.50;48.30;;;;;;10346797;28;20233;-77
2021/12/25 08:09:00;;;;;;;7.53;6.83;;;10.50;48.10;;;;;;10351493;28;20736;-76
2021/12/25 08:14:05;;;;;;;8.97;8.10;;;10.60;48.20;;;;;;10344903;28;20607;-76
2021/12/25 08:19:08;;;;;;;8.90;7.73;;;10.60;48.40;;;;;;10351096;28;20240;-70
2021/12/25 08:24:11;;;;;;;8.83;8.03;;;10.60;48.20;;;;;;10344812;28;20654;-68
2021/12/25 08:29:17;;;;;;;9.43;8.17;;;10.70;48.20;;;;;;10355411;28;20226;-68
2021/12/25 08:34:20;;;;;;;8.87;7.97;;;10.70;48.90;;;;;;10347802;28;20230;-70
2021/12/25 08:39:23;;;;;;;11.43;9.73;;;10.70;47.90;;;;;;10349727;28;20226;-68
2021/12/25 08:44:34;;;;;;;9.37;8.40;;;10.80;47.90;;;;;;10350200;28;20249;-68
2021/12/25 08:49:39;;;;;;;11.77;10.57;;;10.80;48.00;;;;;;10348954;28;20233;-68
2021/12/25 08:54:44;;;;;;;10.00;9.00;;;10.80;47.90;;;;;;10354018;28;20309;-68
2021/12/25 08:59:51;;;;;;;11.13;10.07;;;10.80;48.20;;;;;;10344086;28;20725;-68
2021/12/25 09:04:54;;;;;;;8.17;7.43;;;10.80;48.30;;;;;;10350486;28;20226;-68
2021/12/25 09:09:57;;;;;;;8.80;7.90;;;10.80;48.10;;;;;;10348228;28;20226;-68
2021/12/25 09:15:02;;;;;;;6.90;6.23;;;10.80;48.20;;;;;;10351757;28;20246;-68
2021/12/25 09:20:07;;;;;;;9.57;8.60;;;10.70;49.20;;;;;;10356724;28;20218;-69
2021/12/25 09:25:10;;;;;;;10.50;9.50;;;10.80;48.60;;;;;;10348964;28;20226;-68
2021/12/25 09:30:15;;;;;;;9.30;8.40;;;10.80;48.50;;;;;;10353299;28;20230;-68
2021/12/25 09:35:18;;;;;;;6.70;6.00;;;10.90;49.60;;;;;;10351047;28;20226;-68
2021/12/25 09:40:21;;;;;;;4.50;4.10;;;10.90;48.60;;;;;;10352521;28;20233;-68
2021/12/25 09:45:26;;;;;;;3.83;3.43;;;11.00;48.50;;;;;;10356054;28;20718;-69
2021/12/25 09:50:29;;;;;;;3.80;3.50;;;11.00;48.60;;;;;;10353220;28;20259;-68
2021/12/25 09:55:33;;;;;;;4.17;3.70;;;11.10;48.30;;;;;;10355737;28;20246;-69
2021/12/25 10:00:41;;;;;;;5.03;4.33;;;11.20;49.00;;;;;;10355331;28;20730;-68
2021/12/25 10:05:57;;;;;;;4.90;4.40;;;11.20;48.60;;;;;;10357981;28;20741;-69
2021/12/25 10:11:02;;;;;;;5.13;4.60;;;11.20;48.00;;;;;;10350769;28;20285;-68
2021/12/25 10:16:22;;;;;;;5.40;4.90;;;11.20;48.00;;;;;;10355777;28;20234;-68
2021/12/25 10:21:28;;;;;;;6.10;5.60;;;11.10;48.40;;;;;;10355285;28;20225;-68
2021/12/25 10:26:31;;;;;;;16.10;14.57;;;11.10;47.90;;;;;;10352108;28;20222;-68
2021/12/25 10:31:36;;;;;;;6.43;5.83;;;11.20;47.80;;;;;;10353515;28;20616;-68
2021/12/25 10:36:39;;;;;;;6.80;6.10;;;11.10;47.90;;;;;;10351979;28;20622;-68
2021/12/25 10:41:52;;;;;;;5.70;5.20;;;11.10;47.90;;;;;;10355493;28;20229;-68
2021/12/25 10:46:59;;;;;;;5.40;5.00;;;11.10;48.50;;;;;;10353258;28;20571;-68
2021/12/25 10:52:13;;;;;;;5.90;5.40;;;11.10;49.00;;;;;;10354593;28;20222;-69
2021/12/25 10:57:38;;;;;;;6.13;5.63;;;11.10;48.60;;;;;;10356136;28;20229;-68
2021/12/25 11:02:45;;;;;;;5.80;5.30;;;11.20;48.80;;;;;;10353433;28;20665;-68
2021/12/25 11:07:49;;;;;;;5.33;4.90;;;11.20;48.50;;;;;;10353669;28;20256;-68
2021/12/25 11:12:52;;;;;;;4.87;4.27;;;11.20;48.40;;;;;;10350054;28;20222;-68
2021/12/25 11:18:06;;;;;;;4.20;3.90;;;11.30;48.40;;;;;;10348300;28;20707;-68
2021/12/25 11:23:11;;;;;;;4.87;4.47;;;11.30;49.10;;;;;;10349425;28;20224;-69
2021/12/25 11:28:18;;;;;;;4.00;3.70;;;11.30;48.30;;;;;;10345677;28;20226;-68
2021/12/25 11:33:23;;;;;;;4.10;3.80;;;11.30;48.30;;;;;;10351812;28;20230;-68
2021/12/25 11:38:26;;;;;;;4.30;4.00;;;11.40;48.30;;;;;;10345321;28;20234;-68
2021/12/25 11:43:40;;;;;;;4.90;4.50;;;11.40;48.20;;;;;;10341849;28;20615;-68
2021/12/25 11:48:45;;;;;;;6.00;5.50;;;11.40;49.00;;;;;;10346996;28;20699;-68
2021/12/25 11:54:06;;;;;;;6.97;6.27;;;11.40;48.00;;;;;;10352606;28;20715;-68
2021/12/25 11:59:12;;;;;;;6.57;5.97;;;11.40;47.90;;;;;;10355564;28;20563;-68
2021/12/25 12:04:21;;;;;;;7.93;7.23;;;11.40;47.80;;;;;;10350759;28;20230;-68
2021/12/25 12:09:26;;;;;;;8.73;7.93;;;11.40;48.10;;;;;;10353128;28;20318;-69
2021/12/25 12:14:30;;;;;;;8.43;7.73;;;11.40;48.10;;;;;;10348483;28;20234;-68
2021/12/25 12:19:46;;;;;;;7.83;7.07;;;11.40;48.00;;;;;;10348630;28;20230;-68
2021/12/25 12:25:19;;;;;;;9.00;8.17;;;11.40;48.30;;;;;;10347451;28;20682;-68
2021/12/25 12:30:49;;;;;;;11.10;10.10;;;11.40;48.20;;;;;;10353043;28;20242;-68
2021/12/25 12:35:55;;;;;;;10.40;9.50;;;11.40;48.20;;;;;;10346421;28;20232;-68
2021/12/25 12:41:18;;;;;;;9.30;8.50;;;11.40;48.10;;;;;;10347375;28;20249;-68
2021/12/25 12:46:22;;;;;;;10.10;9.20;;;11.40;48.20;;;;;;10344777;28;20240;-68
2021/12/25 12:51:26;;;;;;;9.10;8.30;;;11.50;48.00;;;;;;10351409;28;20249;-69
2021/12/25 12:56:30;;;;;;;9.57;8.67;;;11.50;48.00;;;;;;10356079;28;20578;-69
2021/12/25 13:01:37;;;;;;;9.97;9.10;;;11.50;47.90;;;;;;10352886;28;20226;-68
2021/12/25 13:06:42;;;;;;;8.00;7.30;;;11.50;47.80;;;;;;10352786;28;20234;-68
2021/12/25 13:11:58;;;;;;;13.87;12.53;;;11.60;47.90;;;;;;10353898;28;20369;-68
2021/12/25 13:17:07;;;;;;;11.60;10.40;;;11.60;48.00;;;;;;10358835;28;20611;-69
2021/12/25 13:22:14;;;;;;;10.73;9.73;;;11.50;48.10;;;;;;10354031;28;20226;-69
2021/12/25 13:27:18;;;;;;;11.47;10.37;;;11.50;47.90;;;;;;10351119;28;20227;-69
2021/12/25 13:32:26;;;;;;;11.87;10.70;;;11.50;47.70;;;;;;10355200;28;20230;-69
2021/12/25 13:37:31;;;;;;;12.20;11.10;;;11.50;48.00;;;;;;10355908;28;20241;-68
2021/12/25 13:42:35;;;;;;;20.03;18.07;;;11.40;48.00;;;;;;10355114;28;20226;-68
2021/12/25 13:47:39;;;;;;;12.40;11.30;;;11.50;47.90;;;;;;10358831;28;20789;-68
2021/12/25 13:52:50;;;;;;;12.10;10.90;;;11.40;47.80;;;;;;10353277;28;20222;-68
2021/12/25 13:57:57;;;;;;;9.87;8.87;;;11.40;48.00;;;;;;10356603;28;20227;-68
2021/12/25 14:03:04;;;;;;;11.77;10.67;;;11.40;48.00;;;;;;10356027;28;20226;-68
2021/12/25 14:08:10;;;;;;;12.87;11.67;;;11.40;48.00;;;;;;10357986;28;20237;-69
2021/12/25 14:13:16;;;;;;;12.97;11.67;;;11.40;47.90;;;;;;10353084;28;20230;-68
2021/12/25 14:18:21;;;;;;;12.70;11.50;;;11.40;47.80;;;;;;10354535;28;20222;-76
2021/12/25 14:23:26;;;;;;;8.67;7.87;;;11.40;47.60;;;;;;10356940;28;20234;-76
2021/12/25 14:28:32;;;;;;;6.20;5.70;;;11.30;47.00;;;;;;10357998;28;20240;-76
2021/12/25 14:33:37;;;;;;;6.30;5.20;;;11.20;46.50;;;;;;10354249;28;20253;-76
2021/12/25 14:38:44;;;;;;;4.57;4.17;;;11.00;46.20;;;;;;10356406;28;20226;-76
2021/12/25 14:43:47;;;;;;;6.80;6.20;;;10.90;46.20;;;;;;10346197;28;20222;-76
2021/12/25 14:48:51;;;;;;;5.70;5.20;;;10.70;46.10;;;;;;10353807;28;20538;-76
2021/12/25 14:53:58;;;;;;;4.63;4.33;;;10.60;46.10;;;;;;10349115;28;20227;-76
2021/12/25 14:59:04;;;;;;;3.90;3.60;;;10.50;46.00;;;;;;10351000;28;20578;-76
2021/12/25 15:04:09;;;;;;;3.37;3.07;;;10.30;45.80;;;;;;10353932;28;20229;-75
2021/12/25 15:09:18;;;;;;;3.27;2.97;;;10.20;45.50;;;;;;10354937;28;20232;-76
2021/12/25 15:14:27;;;;;;;2.80;2.60;;;10.10;45.40;;;;;;10348276;28;20540;-76
2021/12/25 15:19:32;;;;;;;6.50;3.47;;;9.90;46.00;;;;;;10351840;28;20219;-76
2021/12/25 15:24:38;;;;;;;2.73;2.53;;;9.70;46.00;;;;;;10356621;28;20233;-76
2021/12/25 15:29:42;;;;;;;2.60;2.40;;;9.60;46.00;;;;;;10350500;28;20258;-76
2021/12/25 15:34:53;;;;;;;2.27;2.13;;;9.40;46.00;;;;;;10350069;28;20227;-76
2021/12/25 15:40:01;;;;;;;1.90;1.80;;;9.30;46.00;;;;;;10349257;28;20588;-78
2021/12/25 15:45:05;;;;;;;1.83;1.73;;;9.10;45.90;;;;;;10348962;28;20606;-76
2021/12/25 15:50:11;;;;;;;2.10;2.00;;;9.00;45.90;;;;;;10345753;28;20226;-76
2021/12/25 15:55:16;;;;;;;2.00;1.90;;;8.90;45.90;;;;;;10350515;28;20613;-76
2021/12/25 16:00:20;;;;;;;2.67;1.97;;;8.70;45.80;;;;;;10354597;28;20229;-76
2021/12/25 16:05:23;;;;;;;2.27;2.17;;;8.60;45.70;;;;;;10353078;28;20230;-76
2021/12/25 16:10:27;;;;;;;3.03;2.83;;;8.50;45.90;;;;;;10351865;28;20306;-77
2021/12/25 16:15:31;;;;;;;2.77;2.57;;;8.50;45.90;;;;;;10346765;28;20233;-76
2021/12/25 16:20:42;;;;;;;2.50;2.30;;;8.40;45.80;;;;;;10349501;28;20245;-76
2021/12/25 16:25:52;;;;;;;2.47;2.27;;;8.30;45.90;;;;;;10357248;28;20237;-77
2021/12/25 16:30:55;;;;;;;2.87;2.20;;;8.30;45.90;;;;;;10351719;28;20572;-76
2021/12/25 16:35:59;;;;;;;2.37;2.17;;;8.20;45.90;;;;;;10358078;28;20234;-76
2021/12/25 16:41:04;;;;;;;3.43;3.17;;;8.10;45.80;;;;;;10358397;28;20616;-76
2021/12/25 16:46:09;;;;;;;2.20;2.10;;;8.00;45.70;;;;;;10355755;28;20218;-76
2021/12/25 16:51:14;;;;;;;2.50;2.30;;;8.00;45.70;;;;;;10353581;28;20808;-77
2021/12/25 16:56:19;;;;;;;2.83;2.43;;;7.90;45.50;;;;;;10354114;28;20772;-77
2021/12/25 17:01:22;;;;;;;2.60;2.40;;;7.80;45.50;;;;;;10356487;28;20230;-76
2021/12/25 17:06:25;;;;;;;2.53;2.33;;;7.70;45.50;;;;;;10357029;28;20235;-77
2021/12/25 17:11:30;;;;;;;2.50;2.30;;;7.60;45.50;;;;;;10358899;28;20234;-77
2021/12/25 17:16:34;;;;;;;2.50;2.30;;;7.50;45.70;;;;;;10356930;28;20226;-77
2021/12/25 17:21:37;;;;;;;3.03;2.70;;;7.40;45.80;;;;;;10359575;28;20230;-77
2021/12/25 17:26:41;;;;;;;2.80;2.60;;;7.30;45.80;;;;;;10358065;28;20269;-77
2021/12/25 17:31:44;;;;;;;2.80;2.60;;;7.30;45.80;;;;;;10353001;28;20230;-77
2021/12/25 17:36:49;;;;;;;2.70;2.50;;;7.20;45.80;;;;;;10359351;28;20719;-77
2021/12/25 17:41:58;;;;;;;2.93;2.70;;;7.20;45.80;;;;;;10351077;28;20223;-77
2021/12/25 17:47:01;;;;;;;2.97;2.77;;;7.20;46.10;;;;;;10356484;28;20615;-74
2021/12/25 17:52:06;;;;;;;3.00;2.70;;;7.10;45.50;;;;;;10350098;28;20218;-76
2021/12/25 17:57:10;;;;;;;3.20;3.00;;;7.10;45.70;;;;;;10356707;28;20228;-76
2021/12/25 18:02:14;;;;;;;3.40;3.10;;;7.00;45.60;;;;;;10357175;28;20233;-77
2021/12/25 18:07:17;;;;;;;3.10;2.90;;;7.00;45.80;;;;;;10356968;28;20250;-77
2021/12/25 18:12:22;;;;;;;3.83;3.13;;;7.00;45.70;;;;;;10354924;28;20620;-76
2021/12/25 18:17:25;;;;;;;3.50;3.20;;;7.00;45.50;;;;;;10353101;28;20231;-77
2021/12/25 18:22:28;;;;;;;3.27;2.97;;;6.90;45.50;;;;;;10352822;28;20230;-77
2021/12/25 18:27:33;;;;;;;3.33;3.03;;;6.90;45.50;;;;;;10353859;28;20236;-76
2021/12/25 18:32:36;;;;;;;4.67;3.00;;;6.80;45.30;;;;;;10352258;28;20237;-77
2021/12/25 18:37:40;;;;;;;3.03;2.83;;;6.80;45.40;;;;;;10348410;28;20395;-77
2021/12/25 18:42:45;;;;;;;3.63;3.33;;;6.80;45.50;;;;;;10344789;28;20227;-76
2021/12/25 18:47:49;;;;;;;3.43;3.23;;;6.70;45.40;;;;;;10355628;28;20225;-77
2021/12/25 18:52:57;;;;;;;3.57;3.27;;;6.70;45.40;;;;;;10350179;28;20235;-77
2021/12/25 18:58:02;;;;;;;4.07;3.77;;;6.70;45.50;;;;;;10354611;28;20707;-77
2021/12/25 19:03:07;;;;;;;4.20;3.80;;;6.70;45.60;;;;;;10355385;28;20221;-77
2021/12/25 19:08:23;;;;;;;4.73;4.23;;;6.60;45.40;;;;;;10353163;28;20234;-76
2021/12/25 19:13:28;;;;;;;4.33;4.03;;;6.60;45.40;;;;;;10350452;28;20740;-77
2021/12/25 19:18:32;;;;;;;4.30;3.90;;;6.60;45.50;;;;;;10347038;28;20226;-77
2021/12/25 19:23:36;;;;;;;4.47;4.13;;;6.50;45.50;;;;;;10350737;28;20714;-77
2021/12/25 19:28:40;;;;;;;5.43;4.97;;;6.50;45.50;;;;;;10350541;28;20235;-77
2021/12/25 19:33:44;;;;;;;4.83;4.43;;;6.40;45.50;;;;;;10353550;28;20249;-77
2021/12/25 19:38:47;;;;;;;4.73;4.33;;;6.40;45.50;;;;;;10350764;28;20582;-77
2021/12/25 19:43:51;;;;;;;5.40;4.90;;;6.40;45.70;;;;;;10349298;28;20766;-77
2021/12/25 19:48:57;;;;;;;5.30;4.83;;;6.30;45.50;;;;;;10349028;28;20223;-77
2021/12/25 19:54:01;;;;;;;5.37;4.97;;;6.30;45.50;;;;;;10348421;28;20219;-76
2021/12/25 19:59:06;;;;;;;4.90;4.50;;;6.20;45.50;;;;;;10351919;28;20228;-76
2021/12/25 20:04:09;;;;;;;5.27;4.87;;;6.20;45.50;;;;;;10347219;28;20246;-76
2021/12/25 20:09:13;;;;;;;5.20;4.80;;;6.20;45.80;;;;;;10348128;28;20284;-77
2021/12/25 20:14:17;;;;;;;5.20;4.80;;;6.20;45.70;;;;;;10352914;28;20226;-77
2021/12/25 20:19:20;;;;;;;4.70;4.40;;;6.10;45.60;;;;;;10351448;28;20707;-71
2021/12/25 20:24:24;;;;;;;5.00;4.60;;;6.10;45.80;;;;;;10353305;28;20597;-71
2021/12/25 20:29:28;;;;;;;4.90;4.47;;;6.10;45.80;;;;;;10347545;28;21038;-72
2021/12/25 20:34:31;;;;;;;5.07;4.57;;;6.10;45.70;;;;;;10349823;28;20622;-71
2021/12/25 20:39:34;;;;;;;5.20;4.80;;;6.10;45.80;;;;;;10352810;28;20566;-71
2021/12/25 20:50:00;;;;;;;5.80;5.30;;;6.20;46.00;;;;;;10348416;28;20223;-71
2021/12/25 20:55:04;;;;;;;5.57;5.17;;;6.20;46.10;;;;;;10343005;28;20237;-71
2021/12/25 21:00:10;;;;;;;5.73;5.23;;;6.20;46.00;;;;;;10349368;28;20219;-72
2021/12/25 21:05:15;;;;;;;5.73;5.33;;;6.20;45.80;;;;;;10345846;28;20241;-71
2021/12/25 21:10:19;;;;;;;5.73;5.33;;;6.20;45.80;;;;;;10352925;28;20607;-71
2021/12/25 21:15:25;;;;;;;6.27;5.77;;;6.30;45.90;;;;;;10355333;28;20238;-71
2021/12/25 21:20:29;;;;;;;6.40;5.90;;;6.30;46.00;;;;;;10352091;28;20226;-71
2021/12/25 21:25:32;;;;;;;6.60;6.10;;;6.30;46.00;;;;;;10354839;28;20230;-71
2021/12/25 21:30:37;;;;;;;6.50;5.97;;;6.30;46.00;;;;;;10354825;28;20618;-71
2021/12/25 21:35:41;;;;;;;6.17;5.67;;;6.30;45.80;;;;;;10355297;28;20419;-71
2021/12/25 21:40:44;;;;;;;6.90;6.30;;;6.30;45.80;;;;;;10353678;28;20677;-71
2021/12/25 21:45:48;;;;;;;7.00;6.30;;;6.20;45.60;;;;;;10355776;28;20718;-71
2021/12/25 21:50:54;;;;;;;7.13;6.47;;;6.20;45.80;;;;;;10354709;28;20321;-72
2021/12/25 21:55:57;;;;;;;7.40;6.70;;;6.20;45.70;;;;;;10355247;28;20833;-72
2021/12/25 22:01:02;;;;;;;7.60;6.97;;;6.20;45.70;;;;;;10356328;28;20218;-72
2021/12/25 22:06:05;;;;;;;7.53;6.93;;;6.20;45.80;;;;;;10346468;28;20611;-72
2021/12/25 22:11:11;;;;;;;8.00;7.27;;;6.10;45.70;;;;;;10352711;28;20510;-72
2021/12/25 22:16:15;;;;;;;7.77;7.07;;;6.10;45.80;;;;;;10352518;28;20234;-72
2021/12/25 22:21:20;;;;;;;7.60;6.83;;;6.10;45.80;;;;;;10349879;28;20249;-72
2021/12/25 22:26:23;;;;;;;8.13;7.33;;;6.10;45.90;;;;;;10354719;28;20612;-72
2021/12/25 22:31:29;;;;;;;7.87;7.17;;;6.10;45.80;;;;;;10346086;28;20860;-72
2021/12/25 22:36:33;;;;;;;8.07;7.03;;;6.00;45.90;;;;;;10351590;28;20230;-72
2021/12/25 22:41:36;;;;;;;7.73;7.03;;;6.00;45.80;;;;;;10349642;28;20720;-72
2021/12/25 22:46:41;;;;;;;7.97;7.07;;;6.00;45.90;;;;;;10351761;28;20226;-72
2021/12/25 22:51:44;;;;;;;8.90;7.63;;;6.00;45.90;;;;;;10347889;28;21204;-72
2021/12/25 22:56:48;;;;;;;8.37;7.57;;;5.90;45.90;;;;;;10353189;28;20226;-72
2021/12/25 23:01:52;;;;;;;7.77;6.97;;;5.90;45.90;;;;;;10352842;28;20222;-72
2021/12/25 23:06:55;;;;;;;8.17;7.37;;;5.90;46.00;;;;;;10348698;28;20718;-72
2021/12/25 23:11:59;;;;;;;8.10;7.30;;;5.90;46.10;;;;;;10352623;28;21255;-72
2021/12/25 23:17:04;;;;;;;9.13;7.93;;;5.90;46.10;;;;;;10351772;28;20594;-72
2021/12/25 23:22:07;;;;;;;8.97;8.00;;;5.90;46.20;;;;;;10350763;28;20229;-72
2021/12/25 23:27:10;;;;;;;9.03;8.13;;;5.90;46.10;;;;;;10354787;28;20241;-72
2021/12/25 23:32:15;;;;;;;8.57;7.67;;;5.80;46.10;;;;;;10349164;28;20230;-72
2021/12/25 23:37:20;;;;;;;9.23;8.27;;;5.80;46.20;;;;;;10353952;28;20233;-72
2021/12/25 23:42:27;;;;;;;8.57;7.77;;;5.80;46.10;;;;;;10347343;28;20234;-72
2021/12/25 23:47:32;;;;;;;9.73;8.47;;;5.80;46.30;;;;;;10350616;28;20716;-73
2021/12/25 23:52:35;;;;;;;8.83;7.93;;;5.80;46.40;;;;;;10357581;28;20245;-72
2021/12/25 23:57:41;;;;;;;8.47;7.67;;;5.80;46.30;;;;;;10350412;28;20262;-72
